createdAt,value
2022-09-06T00:00:36.393Z,96425.69
2022-09-06T00:03:03.002Z,96431.63
2022-09-06T00:05:30.609Z,96428.66
2022-09-06T00:08:00.834Z,96426.38
2022-09-06T00:10:28.294Z,96425.97
2022-09-06T00:12:54.244Z,96422.88
2022-09-06T00:15:21.694Z,96420.19
2022-09-06T00:17:48.575Z,96422.00
2022-09-06T00:20:14.643Z,96425.19
2022-09-06T00:22:40.471Z,96419.41
2022-09-06T00:25:06.951Z,96419.72
2022-09-06T00:27:33.641Z,96418.00
2022-09-06T00:29:59.572Z,96417.63
2022-09-06T00:32:25.974Z,96406.41
2022-09-06T00:34:51.951Z,96403.81
2022-09-06T00:37:17.787Z,96397.38
2022-09-06T00:39:44.252Z,96399.75
2022-09-06T00:42:11.844Z,96394.34
2022-09-06T00:44:38.385Z,96390.41
2022-09-06T00:47:06.070Z,96385.41
2022-09-06T00:49:43.555Z,96388.22
2022-09-06T00:52:14.252Z,96389.91
2022-09-06T00:54:41.084Z,96391.25
2022-09-06T00:57:07.288Z,96382.50
2022-09-06T00:59:36.086Z,96385.03
2022-09-06T01:02:02.347Z,96378.00
2022-09-06T01:04:28.989Z,96379.59
2022-09-06T01:07:25.007Z,96375.72
2022-09-06T01:10:05.763Z,96380.09
2022-09-06T01:12:43.719Z,96380.97
2022-09-06T01:15:37.075Z,96373.16
2022-09-06T01:18:30.967Z,96384.28
2022-09-06T01:21:18.383Z,96389.34
2022-09-06T01:23:50.108Z,96395.38
2022-09-06T01:26:21.584Z,96396.19
2022-09-06T01:28:48.555Z,96400.31
2022-09-06T01:31:35.574Z,96404.09
2022-09-06T01:34:07.139Z,96416.81
2022-09-06T01:37:09.520Z,96460.97
2022-09-06T01:39:37.087Z,96452.06
2022-09-06T01:42:15.113Z,96449.72
2022-09-06T01:44:45.318Z,96454.81
2022-09-06T01:47:45.424Z,96466.25
2022-09-06T01:50:36.868Z,96455.75
2022-09-06T01:53:27.139Z,96471.53
2022-09-06T01:55:58.204Z,96476.19
2022-09-06T01:58:33.105Z,96480.94
2022-09-06T02:01:05.084Z,96465.91
2022-09-06T02:03:42.684Z,96457.47
2022-09-06T02:06:14.166Z,96452.63
2022-09-06T02:08:50.218Z,96452.47
2022-09-06T02:11:16.610Z,96453.00
2022-09-06T02:14:04.354Z,96452.03
2022-09-06T02:16:33.811Z,96453.56
2022-09-06T02:19:06.349Z,96451.50
2022-09-06T02:21:37.733Z,96445.28
2022-09-06T02:24:08.264Z,96447.22
2022-09-06T02:26:38.047Z,96437.41
2022-09-06T02:29:04.273Z,96432.69
2022-09-06T02:31:48.768Z,96427.78
2022-09-06T02:34:17.587Z,96425.56
2022-09-06T02:36:44.075Z,96437.94
2022-09-06T02:39:10.629Z,96424.88
2022-09-06T02:41:37.328Z,96425.31
2022-09-06T02:44:03.274Z,96418.91
2022-09-06T02:46:29.141Z,96422.00
2022-09-06T02:48:54.975Z,96413.78
2022-09-06T02:51:20.818Z,96405.06
2022-09-06T02:53:46.857Z,96406.31
2022-09-06T02:56:12.647Z,96406.34
2022-09-06T02:58:39.445Z,96407.06
2022-09-06T03:01:05.981Z,96408.56
2022-09-06T03:03:31.969Z,96410.56
2022-09-06T03:05:57.963Z,96404.22
2022-09-06T03:08:32.613Z,96412.88
2022-09-06T03:10:59.642Z,96413.59
2022-09-06T03:13:26.377Z,96402.50
2022-09-06T03:15:55.367Z,96404.19
2022-09-06T03:18:22.395Z,96405.66
2022-09-06T03:20:49.635Z,96400.44
2022-09-06T03:23:16.153Z,96395.75
2022-09-06T03:25:42.565Z,96397.66
2022-09-06T03:28:08.457Z,96400.38
2022-09-06T03:30:34.292Z,96397.94
2022-09-06T03:33:02.853Z,96396.72
2022-09-06T03:35:29.437Z,96396.84
2022-09-06T03:37:55.218Z,96405.81
2022-09-06T03:40:21.104Z,96410.06
2022-09-06T03:42:46.945Z,96424.94
2022-09-06T03:45:12.824Z,96424.84
2022-09-06T03:47:38.634Z,96428.31
2022-09-06T03:50:05.644Z,96424.31
2022-09-06T03:52:31.802Z,96431.59
2022-09-06T03:54:57.615Z,96428.09
2022-09-06T03:57:23.557Z,96419.44
2022-09-06T03:59:49.399Z,96419.63
2022-09-06T04:02:15.274Z,96415.00
2022-09-06T04:04:41.144Z,96421.97
2022-09-06T04:07:06.940Z,96413.47
2022-09-06T04:09:33.885Z,96411.53
2022-09-06T04:11:59.818Z,96410.00
2022-09-06T04:14:25.633Z,96400.75
2022-09-06T04:16:51.837Z,96397.34
2022-09-06T04:19:17.809Z,96397.91
2022-09-06T04:21:44.723Z,96395.41
2022-09-06T04:24:10.598Z,96396.66
2022-09-06T04:26:36.661Z,96399.00
2022-09-06T04:29:02.931Z,96393.41
2022-09-06T04:31:28.846Z,96394.31
2022-09-06T04:33:54.741Z,96397.69
2022-09-06T04:36:20.949Z,96394.19
2022-09-06T04:38:46.828Z,96396.38
2022-09-06T04:41:15.053Z,96400.81
2022-09-06T04:43:41.285Z,96400.03
2022-09-06T04:46:29.127Z,96396.78
2022-09-06T04:48:56.083Z,96391.91
2022-09-06T04:51:23.667Z,96395.72
2022-09-06T04:53:50.432Z,96394.31
2022-09-06T04:56:19.618Z,96387.56
2022-09-06T04:58:46.989Z,96386.00
2022-09-06T05:01:13.316Z,96382.50
2022-09-06T05:03:39.249Z,96386.56
2022-09-06T05:06:24.307Z,96389.06
2022-09-06T05:08:56.595Z,96385.06
2022-09-06T05:11:22.722Z,96390.28
2022-09-06T05:13:49.508Z,96392.88
2022-09-06T05:16:16.147Z,96387.53
2022-09-06T05:18:42.054Z,96386.56
2022-09-06T05:21:07.963Z,96392.03
2022-09-06T05:23:33.921Z,96392.16
2022-09-06T05:25:59.765Z,96395.72
2022-09-06T05:28:25.635Z,96396.22
2022-09-06T05:30:51.498Z,96397.38
2022-09-06T05:33:22.082Z,96405.81
2022-09-06T05:35:48.542Z,96400.22
2022-09-06T05:38:14.798Z,96407.13
2022-09-06T05:40:40.649Z,96413.91
2022-09-06T05:43:06.479Z,96405.41
2022-09-06T05:45:32.484Z,96415.31
2022-09-06T05:47:58.331Z,96415.81
2022-09-06T05:50:24.132Z,96414.44
2022-09-06T05:52:53.013Z,96424.09
2022-09-06T05:55:18.808Z,96420.31
2022-09-06T05:57:44.587Z,96425.75
2022-09-06T06:00:11.560Z,96419.22
2022-09-06T06:02:37.666Z,96418.03
2022-09-06T06:05:03.885Z,96412.19
2022-09-06T06:07:29.694Z,96410.81
2022-09-06T06:09:55.503Z,96409.38
2022-09-06T06:12:21.324Z,96407.94
2022-09-06T06:14:47.180Z,96406.28
2022-09-06T06:17:12.944Z,96403.88
2022-09-06T06:19:39.515Z,96410.50
2022-09-06T06:22:05.359Z,96408.16
2022-09-06T06:24:31.202Z,96410.66
2022-09-06T06:26:57.058Z,96407.34
2022-09-06T06:29:24.550Z,96405.84
2022-09-06T06:31:50.406Z,96410.03
2022-09-06T06:34:20.102Z,96405.22
2022-09-06T06:36:45.934Z,96399.50
2022-09-06T06:39:11.829Z,96403.88
2022-09-06T06:41:37.689Z,96400.06
2022-09-06T06:44:05.011Z,96394.81
2022-09-06T06:46:36.342Z,96397.41
2022-09-06T06:49:02.869Z,96397.78
2022-09-06T06:51:31.513Z,96393.38
2022-09-06T06:53:57.492Z,96395.34
2022-09-06T06:56:49.324Z,96400.19
2022-09-06T06:59:15.138Z,96386.47
2022-09-06T07:01:41.092Z,96392.47
2022-09-06T07:04:08.006Z,96394.50
2022-09-06T07:12:25.931Z,96403.81
2022-09-06T07:14:51.783Z,96397.09
2022-09-06T07:17:17.600Z,96403.13
2022-09-06T07:22:29.341Z,96407.38
2022-09-06T07:24:55.424Z,96409.72
2022-09-06T07:30:08.038Z,96399.38
2022-09-06T07:32:34.494Z,96394.03
2022-09-06T07:35:00.279Z,96400.38
2022-09-06T07:37:26.115Z,96402.44
2022-09-06T07:39:52.007Z,96406.59
2022-09-06T07:42:18.023Z,96399.78
2022-09-06T07:44:43.895Z,96398.56
2022-09-06T07:55:27.867Z,96401.22
2022-09-06T07:57:53.711Z,96399.16
2022-09-06T08:00:19.643Z,96409.88
2022-09-06T08:02:45.490Z,96408.31
2022-09-06T08:10:42.948Z,96409.38
2022-09-06T08:13:08.806Z,96408.19
2022-09-06T08:15:35.334Z,96409.38
2022-09-06T08:18:01.637Z,96408.38
2022-09-06T08:20:27.436Z,96415.03
2022-09-06T08:22:53.242Z,96414.16
2022-09-06T08:25:19.098Z,96407.78
2022-09-06T08:27:44.919Z,96408.06
2022-09-06T08:30:11.082Z,96410.44
2022-09-06T08:32:38.247Z,96412.16
2022-09-06T08:35:04.690Z,96410.59
2022-09-06T08:37:30.544Z,96405.91
2022-09-06T08:39:56.381Z,96404.28
2022-09-06T08:42:22.260Z,96401.19
2022-09-06T08:44:56.042Z,96401.41
2022-09-06T08:47:23.264Z,96400.63
2022-09-06T08:50:01.359Z,96405.47
2022-09-06T08:53:17.214Z,96402.56
2022-09-06T08:56:04.397Z,96404.34
2022-09-06T08:58:48.862Z,96410.72
2022-09-06T09:01:22.401Z,96407.44
2022-09-06T09:03:48.199Z,96401.72
2022-09-06T09:06:14.092Z,96402.00
2022-09-06T09:08:50.028Z,96394.84
2022-09-06T09:11:21.830Z,96398.72
2022-09-06T09:14:09.842Z,96399.00
2022-09-06T09:16:35.725Z,96396.38
2022-09-06T09:19:04.136Z,96393.47
2022-09-06T09:21:36.842Z,96392.59
2022-09-06T09:24:05.954Z,96386.63
2022-09-06T09:26:47.828Z,96388.19
2022-09-06T09:29:14.564Z,96380.72
2022-09-06T09:31:53.318Z,96378.56
2022-09-06T09:34:33.238Z,96382.56
2022-09-06T09:40:04.045Z,96378.66
2022-09-06T09:42:36.705Z,96379.00
2022-09-06T09:45:29.015Z,96373.22
2022-09-06T09:47:55.260Z,96368.00
2022-09-06T09:50:33.450Z,96369.28
2022-09-06T09:53:11.606Z,96363.59
2022-09-06T09:55:38.741Z,96364.84
2022-09-06T09:58:06.895Z,96362.78
2022-09-06T10:00:35.611Z,96362.00
2022-09-06T10:03:15.101Z,96361.41
2022-09-06T10:05:41.501Z,96364.59
2022-09-06T10:08:12.268Z,96357.16
2022-09-06T10:10:42.381Z,96363.06
2022-09-06T10:13:18.327Z,96346.88
2022-09-06T10:15:44.657Z,96354.56
2022-09-06T10:18:43.258Z,96352.06
2022-09-06T10:21:10.471Z,96350.34
2022-09-06T10:26:42.766Z,96356.34
2022-09-06T10:29:09.262Z,96354.75
2022-09-06T10:31:48.401Z,96355.56
2022-09-06T10:34:33.118Z,96353.66
2022-09-06T10:37:43.290Z,96346.06
2022-09-06T10:40:13.210Z,96343.84
2022-09-06T10:42:43.386Z,96341.34
2022-09-06T10:45:53.777Z,96345.84
2022-09-06T10:48:30.347Z,96344.44
2022-09-06T10:51:18.136Z,96345.13
2022-09-06T10:54:09.471Z,96350.47
2022-09-06T10:56:42.856Z,96348.13
2022-09-06T11:02:05.123Z,96347.69
2022-09-06T11:07:30.741Z,96356.75
2022-09-06T11:10:02.553Z,96352.31
2022-09-06T11:12:47.546Z,96350.16
2022-09-06T11:15:14.641Z,96350.78
2022-09-06T11:17:50.555Z,96342.59
2022-09-06T11:20:36.714Z,96339.41
2022-09-06T11:23:22.559Z,96341.31
2022-09-06T11:25:56.573Z,96352.88
2022-09-06T11:28:38.835Z,96348.56
2022-09-06T11:31:05.775Z,96343.09
2022-09-06T11:33:35.551Z,96348.63
2022-09-06T11:36:26.910Z,96343.25
2022-09-06T11:38:57.732Z,96340.44
2022-09-06T11:41:30.651Z,96334.28
2022-09-06T11:43:56.977Z,96347.72
2022-09-06T11:46:39.533Z,96339.19
2022-09-06T11:49:15.562Z,96341.03
2022-09-06T11:51:43.457Z,96342.00
2022-09-06T11:54:26.306Z,96345.75
2022-09-06T11:57:08.137Z,96339.38
2022-09-06T11:59:46.956Z,96337.16
2022-09-06T12:02:32.861Z,96347.72
2022-09-06T12:05:00.394Z,96330.72
2022-09-06T12:08:09.817Z,96331.53
2022-09-06T12:10:38.407Z,96329.72
2022-09-06T12:13:42.895Z,96316.09
2022-09-06T12:16:13.933Z,96321.84
2022-09-06T12:18:42.560Z,96314.59
2022-09-06T12:21:09.490Z,96313.16
2022-09-06T12:23:35.245Z,96317.22
2022-09-06T12:26:03.441Z,96320.44
2022-09-06T12:28:51.281Z,96312.72
2022-09-06T12:31:40.418Z,96311.47
2022-09-06T12:34:13.880Z,96310.41
2022-09-06T12:36:50.019Z,96312.13
2022-09-06T12:39:15.867Z,96329.44
2022-09-06T12:41:47.536Z,96319.38
2022-09-06T12:44:14.890Z,96317.66
2022-09-06T12:46:51.367Z,96305.81
2022-09-06T12:49:20.880Z,96319.47
2022-09-06T12:51:47.257Z,96315.31
2022-09-06T12:54:25.504Z,96307.25
2022-09-06T12:56:53.097Z,96308.94
2022-09-06T12:59:24.778Z,96305.47
2022-09-06T13:01:59.725Z,96303.16
2022-09-06T13:04:39.156Z,96302.16
2022-09-06T13:07:08.702Z,96294.81
2022-09-06T13:09:36.364Z,96296.22
2022-09-06T13:12:16.965Z,96297.63
2022-09-06T13:14:42.817Z,96294.50
2022-09-06T13:17:23.375Z,96291.38
2022-09-06T13:19:49.316Z,96294.97
2022-09-06T13:22:57.814Z,96295.22
2022-09-06T13:25:25.420Z,96291.78
2022-09-06T13:27:57.076Z,96291.66
2022-09-06T13:30:49.047Z,96295.56
2022-09-06T13:33:35.149Z,96295.06
2022-09-06T13:36:10.056Z,96294.84
2022-09-06T13:38:41.460Z,96283.97
2022-09-06T13:41:27.162Z,96279.56
2022-09-06T13:44:03.833Z,96279.78
2022-09-06T13:46:31.576Z,96291.13
2022-09-06T13:48:57.756Z,96279.38
2022-09-06T13:51:25.697Z,96283.38
2022-09-06T13:54:02.663Z,96290.63
2022-09-06T13:56:28.612Z,96289.53
2022-09-06T13:58:57.387Z,96286.28
2022-09-06T14:01:23.197Z,96285.03
2022-09-06T14:03:49.284Z,96288.59
2022-09-06T14:06:15.791Z,96287.66
2022-09-06T14:09:05.684Z,96294.31
2022-09-06T14:11:28.029Z,96287.00
2022-09-06T14:13:54.370Z,96292.94
2022-09-06T14:16:20.570Z,96295.25
2022-09-06T14:18:48.728Z,96284.88
2022-09-06T14:21:14.670Z,96284.78
2022-09-06T14:23:40.555Z,96276.06
2022-09-06T14:26:06.446Z,96286.66
2022-09-06T14:28:35.214Z,96282.22
2022-09-06T14:31:31.867Z,96275.34
2022-09-06T14:33:57.879Z,96274.47
2022-09-06T14:36:28.507Z,96272.75
2022-09-06T14:38:57.111Z,96267.31
2022-09-06T14:41:23.016Z,96266.88
2022-09-06T14:43:51.493Z,96257.03
2022-09-06T14:46:18.561Z,96255.47
2022-09-06T14:48:45.433Z,96250.41
2022-09-06T14:51:17.103Z,96249.03
2022-09-06T14:53:44.562Z,96243.84
2022-09-06T14:56:11.662Z,96234.59
2022-09-06T14:58:38.963Z,96236.63
2022-09-06T15:01:17.078Z,96230.47
2022-09-06T15:03:47.736Z,96245.38
2022-09-06T15:06:15.297Z,96234.63
2022-09-06T15:08:41.474Z,96231.97
2022-09-06T15:11:08.800Z,96230.63
2022-09-06T15:13:39.511Z,96229.81
2022-09-06T15:16:07.409Z,96223.03
2022-09-06T15:18:33.840Z,96222.78
2022-09-06T15:21:14.333Z,96217.22
2022-09-06T15:23:40.464Z,96214.16
2022-09-06T15:26:08.225Z,96217.28
2022-09-06T15:28:35.241Z,96213.38
2022-09-06T15:31:01.193Z,96216.38
2022-09-06T15:33:31.307Z,96200.59
2022-09-06T15:35:57.433Z,96198.00
2022-09-06T15:38:23.572Z,96203.31
2022-09-06T15:40:50.132Z,96202.28
2022-09-06T15:43:15.991Z,96194.88
2022-09-06T15:45:47.822Z,96193.31
2022-09-06T15:48:19.373Z,96192.22
2022-09-06T15:50:51.529Z,96186.09
2022-09-06T15:53:18.286Z,96194.50
2022-09-06T15:55:56.307Z,96196.56
2022-09-06T15:58:23.897Z,96193.47
2022-09-06T16:01:25.888Z,96192.91
2022-09-06T16:04:04.777Z,96189.16
2022-09-06T16:06:42.891Z,96187.31
2022-09-06T16:09:13.466Z,96189.31
2022-09-06T16:11:40.080Z,96184.31
2022-09-06T16:14:10.362Z,96183.06
2022-09-06T16:16:36.647Z,96185.44
2022-09-06T16:19:02.638Z,96182.06
2022-09-06T16:21:31.502Z,96187.69
2022-09-06T16:24:03.726Z,96183.63
2022-09-06T16:26:36.786Z,96191.31
2022-09-06T16:29:04.376Z,96179.41
2022-09-06T16:31:30.466Z,96177.75
2022-09-06T16:33:57.206Z,96174.28
2022-09-06T16:36:24.848Z,96187.41
2022-09-06T16:38:50.890Z,96187.25
2022-09-06T16:41:16.818Z,96182.88
2022-09-06T16:43:43.800Z,96183.50
2022-09-06T16:46:10.211Z,96185.47
2022-09-06T16:48:37.320Z,96182.38
2022-09-06T16:51:10.463Z,96189.16
2022-09-06T16:53:38.747Z,96182.00
2022-09-06T16:56:04.795Z,96184.72
2022-09-06T16:58:30.757Z,96180.06
2022-09-06T17:00:56.731Z,96188.56
2022-09-06T17:03:23.128Z,96179.22
2022-09-06T17:05:52.630Z,96187.41
2022-09-06T17:08:19.265Z,96183.00
2022-09-06T17:10:45.804Z,96183.50
2022-09-06T17:13:12.461Z,96179.00
2022-09-06T17:15:56.802Z,96187.50
2022-09-06T17:18:25.954Z,96181.16
2022-09-06T17:21:03.967Z,96174.22
2022-09-06T17:23:30.822Z,96181.94
2022-09-06T17:25:56.947Z,96173.88
2022-09-06T17:28:23.297Z,96179.16
2022-09-06T17:30:50.078Z,96169.56
2022-09-06T17:33:17.033Z,96168.91
2022-09-06T17:35:46.851Z,96168.53
2022-09-06T17:38:15.050Z,96159.25
2022-09-06T17:40:41.702Z,96155.53
2022-09-06T17:43:07.779Z,96157.97
2022-09-06T17:45:39.790Z,96158.09
2022-09-06T17:48:06.230Z,96156.22
2022-09-06T17:50:32.561Z,96166.09
2022-09-06T17:52:59.167Z,96168.00
2022-09-06T17:55:28.270Z,96175.38
2022-09-06T17:57:57.807Z,96169.91
2022-09-06T18:00:25.541Z,96167.72
2022-09-06T18:02:52.029Z,96179.38
2022-09-06T18:05:18.051Z,96177.78
2022-09-06T18:07:44.842Z,96176.66
2022-09-06T18:10:11.646Z,96181.28
2022-09-06T18:12:38.280Z,96181.53
2022-09-06T18:15:06.074Z,96181.53
2022-09-06T18:17:32.030Z,96189.22
2022-09-06T18:19:57.929Z,96187.66
2022-09-06T18:22:24.122Z,96188.38
2022-09-06T18:24:53.011Z,96178.38
2022-09-06T18:27:20.962Z,96181.72
2022-09-06T18:29:46.860Z,96173.13
2022-09-06T18:32:12.718Z,96175.16
2022-09-06T18:34:38.602Z,96169.28
2022-09-06T18:37:05.070Z,96172.47
2022-09-06T18:39:31.049Z,96172.75
2022-09-06T18:41:59.848Z,96178.44
2022-09-06T18:44:32.398Z,96173.59
2022-09-06T18:47:04.899Z,96177.22
2022-09-06T18:49:31.761Z,96173.75
2022-09-06T18:51:57.830Z,96176.72
2022-09-06T18:54:23.904Z,96177.66
2022-09-06T18:56:49.795Z,96176.16
2022-09-06T18:59:16.481Z,96182.63
2022-09-06T19:01:42.523Z,96182.66
2022-09-06T19:04:10.785Z,96181.69
2022-09-06T19:06:38.284Z,96187.41
2022-09-06T19:09:10.649Z,96188.50
2022-09-06T19:11:36.919Z,96188.69
2022-09-06T19:14:04.082Z,96193.28
2022-09-06T19:16:30.789Z,96188.50
2022-09-06T19:19:01.544Z,96202.28
2022-09-06T19:21:27.518Z,96203.41
2022-09-06T19:23:59.368Z,96196.78
2022-09-06T19:26:29.141Z,96189.78
2022-09-06T19:29:01.341Z,96197.53
2022-09-06T19:31:29.945Z,96200.06
2022-09-06T19:33:56.389Z,96191.84
2022-09-06T19:36:23.975Z,96191.19
2022-09-06T19:39:06.038Z,96189.94
2022-09-06T19:41:37.362Z,96181.53
2022-09-06T19:44:04.987Z,96188.31
2022-09-06T19:46:31.290Z,96179.00
2022-09-06T19:48:57.515Z,96178.88
2022-09-06T19:51:24.036Z,96168.09
2022-09-06T19:53:59.130Z,96164.13
2022-09-06T19:56:26.536Z,96160.47
2022-09-06T19:59:03.471Z,96162.25
2022-09-06T20:01:31.899Z,96151.31
2022-09-06T20:03:59.256Z,96142.00
2022-09-06T20:06:26.383Z,96134.72
2022-09-06T20:08:55.349Z,96131.69
2022-09-06T20:11:24.489Z,96135.97
2022-09-06T20:13:53.422Z,96137.25
2022-09-06T20:16:20.975Z,96135.97
2022-09-06T20:18:48.260Z,96130.91
2022-09-06T20:21:14.527Z,96127.09
2022-09-06T20:23:40.946Z,96123.03
2022-09-06T20:26:14.257Z,96104.97
2022-09-06T20:28:43.734Z,96099.78
2022-09-06T20:31:15.425Z,96114.34
2022-09-06T20:33:44.735Z,96108.19
2022-09-06T20:36:14.581Z,96113.88
2022-09-06T20:38:42.579Z,96113.72
2022-09-06T20:41:14.322Z,96117.66
2022-09-06T20:43:41.766Z,96107.88
2022-09-06T20:46:16.327Z,96119.25
2022-09-06T20:48:45.091Z,96121.75
2022-09-06T20:51:14.847Z,96117.34
2022-09-06T20:53:41.144Z,96118.47
2022-09-06T20:56:11.229Z,96115.91
2022-09-06T20:58:37.648Z,96124.94
2022-09-06T21:01:14.117Z,96118.94
2022-09-06T21:03:40.976Z,96121.75
2022-09-06T21:06:09.330Z,96122.63
2022-09-06T21:08:39.502Z,96123.41
2022-09-06T21:11:08.998Z,96125.50
2022-09-06T21:13:35.434Z,96123.16
2022-09-06T21:16:02.236Z,96126.16
2022-09-06T21:18:30.482Z,96128.84
2022-09-06T21:20:59.135Z,96130.28
2022-09-06T21:23:26.399Z,96133.88
2022-09-06T21:26:03.147Z,96133.56
2022-09-06T21:28:32.822Z,96141.22
2022-09-06T21:31:11.818Z,96137.63
2022-09-06T21:33:42.855Z,96134.75
2022-09-06T21:36:11.615Z,96149.94
2022-09-06T21:38:43.202Z,96152.13
2022-09-06T21:41:09.923Z,96149.00
2022-09-06T21:43:36.317Z,96149.59
2022-09-06T21:46:08.492Z,96153.53
2022-09-06T21:48:38.581Z,96148.22
2022-09-06T21:51:07.024Z,96139.03
2022-09-06T21:53:33.298Z,96143.81
2022-09-06T21:56:00.489Z,96135.41
2022-09-06T21:58:26.580Z,96126.84
2022-09-06T22:00:54.633Z,96126.97
2022-09-06T22:03:20.566Z,96127.38
2022-09-06T22:05:46.723Z,96124.94
2022-09-06T22:08:16.071Z,96126.53
2022-09-06T22:10:41.981Z,96110.91
2022-09-06T22:13:07.866Z,96104.91
2022-09-06T22:15:42.966Z,96104.75
2022-09-06T22:18:09.445Z,96107.13
2022-09-06T22:20:36.315Z,96093.84
2022-09-06T22:23:03.991Z,96085.84
2022-09-06T22:25:30.468Z,96073.63
2022-09-06T22:27:57.835Z,96076.66
2022-09-06T22:30:25.853Z,96073.47
2022-09-06T22:32:52.399Z,96064.81
2022-09-06T22:35:19.039Z,96057.38
2022-09-06T22:37:44.908Z,96050.03
2022-09-06T22:40:11.027Z,96034.03
2022-09-06T22:42:36.954Z,96019.94
2022-09-06T22:45:03.370Z,96012.50
2022-09-06T22:47:29.220Z,96010.09
2022-09-06T22:49:55.732Z,96003.44
2022-09-06T22:52:21.590Z,96007.34
2022-09-06T22:54:47.486Z,95998.75
2022-09-06T22:57:13.432Z,95995.66
2022-09-06T22:59:39.315Z,95996.53
2022-09-06T23:02:05.405Z,96000.50
2022-09-06T23:04:31.345Z,95987.28
2022-09-06T23:06:58.882Z,95971.47
2022-09-06T23:09:26.616Z,95969.06
2022-09-06T23:11:52.490Z,95965.19
2022-09-06T23:14:18.319Z,95966.09
2022-09-06T23:16:44.179Z,95959.25
2022-09-06T23:19:11.329Z,95963.03
2022-09-06T23:21:37.169Z,95971.56
2022-09-06T23:24:03.087Z,95975.72
2022-09-06T23:26:30.920Z,95977.97
2022-09-06T23:28:57.394Z,95978.94
2022-09-06T23:31:28.508Z,95982.84
2022-09-06T23:33:56.487Z,95984.78
2022-09-06T23:36:22.981Z,95985.19
2022-09-06T23:38:49.161Z,95998.78
2022-09-06T23:41:15.574Z,96007.81
2022-09-06T23:43:42.519Z,96000.00
2022-09-06T23:46:09.974Z,96004.09
2022-09-06T23:48:36.154Z,96011.22
2022-09-06T23:51:02.920Z,96013.28
2022-09-06T23:53:28.957Z,96021.56
2022-09-06T23:55:54.767Z,96030.09
2022-09-06T23:58:20.659Z,96042.41
